Time;durP1;ratioP1;P1;durP2;ratioP2;P2;SDS_P1;SDS_P2;PMS_P1;PMS_P2;Temp;Humidity;BMP_temperature;BMP_pressure;BME280_temperature;BME280_humidity;BME280_pressure;Samples;Min_cycle;Max_cycle;Signal;HPM_P1;HPM_P2
2021/07/14 00:02:25;;;;;;;81.05;40.28;;;20.40;99.90;;;;;;5027967;28;20474;-73
2021/07/14 00:04:51;;;;;;;75.60;43.75;;;20.30;99.90;;;;;;5021310;28;20037;-72
2021/07/14 00:07:16;;;;;;;78.45;43.10;;;20.30;99.90;;;;;;5024502;28;20101;-72
2021/07/14 00:09:42;;;;;;;72.80;43.53;;;20.30;99.90;;;;;;5022392;28;20371;-68
2021/07/14 00:12:10;;;;;;;73.25;42.45;;;20.30;99.90;;;;;;5030003;28;20376;-68
2021/07/14 00:22:34;;;;;;;80.25;42.20;;;20.30;99.90;;;;;;5026976;28;20464;-68
2021/07/14 00:25:01;;;;;;;72.82;41.85;;;20.30;99.90;;;;;;5022668;28;20044;-74
2021/07/14 00:27:27;;;;;;;72.68;42.70;;;20.30;99.90;;;;;;5025294;28;20026;-72
2021/07/14 00:29:55;;;;;;;;;;;;;;;;;;;;;
2021/07/14 00:32:19;;;;;;;79.85;43.97;;;20.30;99.90;;;;;;5034437;28;20386;-72
2021/07/14 00:34:46;;;;;;;88.55;47.03;;;20.40;99.90;;;;;;5031798;28;20025;-70
2021/07/14 00:37:12;;;;;;;84.00;42.03;;;20.50;99.90;;;;;;5030829;28;20511;-69
2021/07/14 00:39:38;;;;;;;67.35;38.92;;;20.40;99.90;;;;;;5025449;28;20068;-71
2021/07/14 00:42:05;;;;;;;79.07;43.15;;;20.40;99.90;;;;;;5026239;28;20049;-72
2021/07/14 00:44:31;;;;;;;78.57;42.08;;;20.30;99.90;;;;;;5024282;28;20453;-72
2021/07/14 00:46:56;;;;;;;75.22;44.08;;;20.30;99.90;;;;;;5025653;28;20063;-69
2021/07/14 00:49:22;;;;;;;81.60;43.83;;;20.30;99.90;;;;;;5023843;28;20523;-72
2021/07/14 00:51:48;;;;;;;69.03;39.92;;;20.40;99.90;;;;;;5030825;28;20393;-72
2021/07/14 00:54:14;;;;;;;81.95;45.35;;;20.30;99.90;;;;;;5026519;28;20097;-71
2021/07/14 00:56:40;;;;;;;93.40;45.95;;;20.40;99.90;;;;;;5029674;28;20117;-72
2021/07/14 00:59:06;;;;;;;76.57;43.38;;;20.50;99.90;;;;;;5033172;28;20026;-71
2021/07/14 01:01:33;;;;;;;77.05;43.00;;;20.40;99.90;;;;;;5031223;28;20009;-73
2021/07/14 01:04:27;;;;;;;88.47;43.70;;;20.50;99.90;;;;;;5032371;28;20030;-72
2021/07/14 01:07:16;;;;;;;79.05;43.78;;;20.40;99.90;;;;;;5026873;28;20052;-72
2021/07/14 01:10:12;;;;;;;73.90;42.63;;;20.40;99.90;;;;;;5028789;28;20530;-69
2021/07/14 01:12:59;;;;;;;76.82;42.50;;;20.40;99.90;;;;;;5026402;28;20045;-72
2021/07/14 01:15:28;;;;;;;74.85;42.22;;;20.40;99.90;;;;;;5030517;28;20044;-72
2021/07/14 01:18:01;;;;;;;80.47;40.40;;;20.40;99.90;;;;;;5046493;28;20057;-72
2021/07/14 01:20:40;;;;;;;77.97;40.53;;;20.40;99.90;;;;;;5032275;28;20473;-72
2021/07/14 01:23:30;;;;;;;79.65;40.38;;;20.30;99.90;;;;;;5035126;28;20413;-72
2021/07/14 01:26:31;;;;;;;80.72;42.92;;;20.40;99.90;;;;;;5029027;28;20084;-72
2021/07/14 01:29:00;;;;;;;72.38;40.17;;;20.30;99.90;;;;;;5025612;28;20025;-72
2021/07/14 01:31:27;;;;;;;74.85;40.30;;;20.30;99.90;;;;;;5027482;28;20025;-72
2021/07/14 01:33:58;;;;;;;79.40;41.08;;;20.30;99.90;;;;;;5029810;28;20079;-71
2021/07/14 01:36:27;;;;;;;76.65;39.92;;;20.10;99.90;;;;;;5028901;28;20100;-72
2021/07/14 01:38:56;;;;;;;74.90;39.13;;;20.30;99.90;;;;;;5028401;28;20025;-71
2021/07/14 01:41:24;;;;;;;80.30;41.58;;;20.30;99.90;;;;;;5028573;28;20044;-72
2021/07/14 01:43:58;;;;;;;79.60;41.72;;;20.10;99.90;;;;;;5029801;28;20051;-72
2021/07/14 01:46:26;;;;;;;83.95;42.22;;;20.20;99.90;;;;;;5024509;28;20041;-73
2021/07/14 01:48:55;;;;;;;78.20;40.63;;;20.20;99.90;;;;;;5028114;28;20036;-72
2021/07/14 01:51:22;;;;;;;77.47;41.38;;;20.30;99.90;;;;;;5023816;28;20041;-74
2021/07/14 01:53:49;;;;;;;78.70;42.30;;;20.20;99.90;;;;;;5045260;28;20105;-71
2021/07/14 01:56:15;;;;;;;87.57;44.40;;;20.30;99.90;;;;;;5031923;28;20048;-72
2021/07/14 01:58:46;;;;;;;90.20;43.72;;;20.20;99.90;;;;;;5026860;28;20048;-74
2021/07/14 02:01:17;;;;;;;85.05;41.75;;;20.30;99.90;;;;;;5031142;28;20021;-73
2021/07/14 02:06:32;;;;;;;85.78;41.85;;;20.20;99.90;;;;;;5026483;28;20052;-70
2021/07/14 02:08:57;;;;;;;91.70;43.17;;;20.10;99.90;;;;;;5028433;28;20056;-73
2021/07/14 02:11:25;;;;;;;100.28;45.58;;;20.10;99.90;;;;;;5029771;28;20057;-73
2021/07/14 02:13:52;;;;;;;91.43;45.53;;;20.20;99.90;;;;;;5023401;28;20060;-72
2021/07/14 02:16:19;;;;;;;79.93;42.67;;;20.10;99.90;;;;;;5026534;28;20036;-70
2021/07/14 02:18:50;;;;;;;86.63;44.45;;;20.10;99.90;;;;;;5024622;28;20033;-73
2021/07/14 02:21:15;;;;;;;78.57;41.42;;;20.20;99.90;;;;;;5021830;28;20026;-73
2021/07/14 02:23:41;;;;;;;75.95;40.75;;;20.10;99.90;;;;;;5022971;28;20040;-74
2021/07/14 02:26:07;;;;;;;85.82;41.40;;;20.10;99.90;;;;;;5023851;28;20021;-73
2021/07/14 02:28:33;;;;;;;84.68;42.28;;;20.10;99.90;;;;;;5022310;28;20029;-69
2021/07/14 02:30:58;;;;;;;80.85;39.55;;;20.10;99.90;;;;;;5030979;28;20756;-75
2021/07/14 02:33:25;;;;;;;88.50;40.70;;;20.00;99.90;;;;;;5029405;28;20017;-68
2021/07/14 02:35:56;;;;;;;65.75;36.97;;;20.00;99.90;;;;;;5028665;28;20023;-72
2021/07/14 02:38:28;;;;;;;84.68;40.15;;;20.10;99.90;;;;;;5022517;28;20108;-73
2021/07/14 02:41:16;;;;;;;75.18;40.38;;;20.10;99.90;;;;;;5028704;28;20092;-72
2021/07/14 02:43:48;;;;;;;79.25;40.70;;;20.10;99.90;;;;;;5030804;28;20466;-72
2021/07/14 02:46:23;;;;;;;73.97;39.03;;;20.10;99.90;;;;;;5029561;28;20025;-71
2021/07/14 02:48:52;;;;;;;78.65;39.58;;;20.10;99.90;;;;;;5024808;28;20034;-72
2021/07/14 02:51:18;;;;;;;77.55;41.53;;;20.00;99.90;;;;;;5031045;28;20009;-72
2021/07/14 02:53:51;;;;;;;82.50;41.80;;;20.00;99.90;;;;;;5030293;28;20068;-72
2021/07/14 02:57:01;;;;;;;81.32;38.42;;;20.00;99.90;;;;;;5027283;28;20045;-68
2021/07/14 02:59:35;;;;;;;72.22;38.28;;;19.90;99.90;;;;;;5024921;28;20037;-72
2021/07/14 03:02:03;;;;;;;77.93;40.03;;;20.00;99.90;;;;;;5026466;28;20029;-72
2021/07/14 03:04:35;;;;;;;69.05;36.22;;;19.90;99.90;;;;;;5024886;28;20073;-72
2021/07/14 03:07:08;;;;;;;81.32;38.97;;;19.80;99.90;;;;;;5026926;28;20037;-72
2021/07/14 03:09:39;;;;;;;78.22;37.40;;;19.80;99.90;;;;;;5042848;28;20661;-71
2021/07/14 03:12:10;;;;;;;70.10;35.90;;;19.80;99.90;;;;;;5029657;28;20469;-72
2021/07/14 03:14:49;;;;;;;74.50;36.80;;;19.80;99.90;;;;;;5027918;28;20028;-72
2021/07/14 03:17:16;;;;;;;80.90;39.42;;;19.90;99.90;;;;;;5027694;28;20023;-73
2021/07/14 03:19:43;;;;;;;77.70;37.22;;;19.80;99.90;;;;;;5030961;28;20021;-72
2021/07/14 03:22:09;;;;;;;74.68;36.60;;;19.90;99.90;;;;;;5028059;28;20013;-72
2021/07/14 03:24:36;;;;;;;64.13;36.00;;;19.90;99.90;;;;;;5023111;28;20819;-72
2021/07/14 03:27:04;;;;;;;78.72;38.97;;;19.90;99.90;;;;;;5029195;28;20466;-73
2021/07/14 03:29:32;;;;;;;77.43;38.78;;;19.90;99.90;;;;;;5026103;28;20026;-71
2021/07/14 03:32:00;;;;;;;67.88;36.08;;;19.90;99.90;;;;;;5030336;28;20220;-73
2021/07/14 03:34:26;;;;;;;88.05;39.95;;;19.90;99.90;;;;;;5027798;28;20030;-69
2021/07/14 03:36:53;;;;;;;71.10;38.40;;;20.00;99.90;;;;;;5026300;28;20079;-72
2021/07/14 03:39:20;;;;;;;66.45;36.65;;;19.90;99.90;;;;;;5030781;28;20987;-73
2021/07/14 03:41:47;;;;;;;72.90;37.42;;;19.90;99.90;;;;;;5027280;28;20017;-75
2021/07/14 03:44:17;;;;;;;75.80;38.65;;;19.90;99.90;;;;;;5040316;28;20096;-73
2021/07/14 03:46:44;;;;;;;71.30;35.78;;;20.00;99.90;;;;;;5025754;28;20018;-73
2021/07/14 03:49:13;;;;;;;74.22;36.17;;;20.00;99.90;;;;;;5022529;28;20025;-75
2021/07/14 03:51:41;;;;;;;60.28;33.63;;;19.90;99.90;;;;;;5026896;28;20025;-72
2021/07/14 03:54:07;;;;;;;65.93;34.55;;;19.90;99.90;;;;;;5027504;28;20036;-75
2021/07/14 03:56:33;;;;;;;73.28;34.53;;;20.00;99.90;;;;;;5025032;28;20025;-75
2021/07/14 03:58:59;;;;;;;62.70;32.88;;;20.00;99.90;;;;;;5023665;28;20080;-75
2021/07/14 04:01:25;;;;;;;53.22;30.77;;;20.00;99.90;;;;;;5022449;28;20029;-75
2021/07/14 04:03:52;;;;;;;53.13;29.52;;;20.00;99.90;;;;;;5027630;28;20116;-75
2021/07/14 04:06:20;;;;;;;48.70;28.52;;;20.00;99.90;;;;;;5027539;28;20061;-74
2021/07/14 04:09:04;;;;;;;50.72;28.08;;;20.00;99.90;;;;;;5026288;28;20079;-73
2021/07/14 04:11:30;;;;;;;48.38;28.15;;;20.00;99.90;;;;;;5029153;28;20381;-73
2021/07/14 04:13:55;;;;;;;48.70;28.27;;;19.90;99.90;;;;;;5032313;28;20474;-75
2021/07/14 04:16:21;;;;;;;55.40;29.42;;;20.00;99.90;;;;;;5033770;28;20022;-75
2021/07/14 04:18:47;;;;;;;49.83;28.02;;;20.00;99.90;;;;;;5036737;28;20033;-75
2021/07/14 04:21:12;;;;;;;45.65;25.35;;;19.90;99.90;;;;;;5038727;28;20024;-75
2021/07/14 04:23:38;;;;;;;46.28;27.30;;;19.90;99.90;;;;;;5029827;28;20043;-68
2021/07/14 04:26:03;;;;;;;47.97;27.55;;;20.00;99.90;;;;;;5032318;28;20524;-73
2021/07/14 04:28:32;;;;;;;59.58;28.85;;;19.90;99.90;;;;;;5030700;28;20440;-74
2021/07/14 04:30:57;;;;;;;56.60;29.60;;;19.90;99.90;;;;;;5028507;28;20520;-72
2021/07/14 04:33:23;;;;;;;50.70;29.88;;;19.90;99.90;;;;;;5032162;28;20022;-72
2021/07/14 04:35:50;;;;;;;49.30;28.45;;;19.80;99.90;;;;;;5032329;28;20022;-69
2021/07/14 04:38:16;;;;;;;52.38;29.50;;;19.90;99.90;;;;;;5032176;28;20026;-70
2021/07/14 04:40:42;;;;;;;60.63;32.28;;;19.90;99.90;;;;;;5033446;28;20106;-70
2021/07/14 04:43:10;;;;;;;51.28;29.33;;;19.90;99.90;;;;;;5026387;28;20052;-68
2021/07/14 04:45:36;;;;;;;53.78;29.35;;;20.00;99.90;;;;;;5032050;28;20441;-70
2021/07/14 04:48:02;;;;;;;51.75;30.45;;;20.00;99.90;;;;;;5031268;28;20373;-72
2021/07/14 04:50:29;;;;;;;55.17;30.80;;;19.90;99.90;;;;;;5044286;28;20026;-72
2021/07/14 04:52:55;;;;;;;48.75;28.48;;;20.00;99.90;;;;;;5031464;28;20018;-70
2021/07/14 04:55:21;;;;;;;45.92;27.42;;;20.00;99.90;;;;;;5026726;28;20393;-72
2021/07/14 04:57:47;;;;;;;48.58;27.90;;;20.00;99.90;;;;;;5029243;28;20370;-74
2021/07/14 05:00:16;;;;;;;49.10;27.23;;;20.00;99.90;;;;;;5025458;28;20179;-74
2021/07/14 05:02:43;;;;;;;49.88;28.48;;;20.00;99.90;;;;;;5029637;28;20426;-73
2021/07/14 05:05:09;;;;;;;53.67;29.50;;;19.90;99.90;;;;;;5032141;28;20033;-73
2021/07/14 05:07:34;;;;;;;62.30;32.95;;;19.90;99.90;;;;;;5030187;28;20063;-74
2021/07/14 05:10:00;;;;;;;57.95;31.08;;;19.90;99.90;;;;;;5032348;28;20485;-74
2021/07/14 05:12:26;;;;;;;52.85;28.00;;;19.90;99.90;;;;;;5033886;28;20084;-73
2021/07/14 05:14:52;;;;;;;52.22;28.40;;;19.90;99.90;;;;;;5025479;28;20503;-71
2021/07/14 05:17:17;;;;;;;58.72;31.40;;;19.90;99.90;;;;;;5029319;28;20104;-72
2021/07/14 05:19:43;;;;;;;54.38;29.80;;;20.00;99.90;;;;;;5026874;28;20021;-72
2021/07/14 05:22:10;;;;;;;55.20;32.00;;;20.00;99.90;;;;;;5032207;28;20073;-73
2021/07/14 05:24:36;;;;;;;61.28;33.25;;;19.90;99.90;;;;;;5030142;28;20061;-73
2021/07/14 05:27:01;;;;;;;56.65;31.90;;;20.00;99.90;;;;;;5030287;28;20485;-72
2021/07/14 05:29:27;;;;;;;64.85;32.40;;;20.00;99.90;;;;;;5021599;28;20120;-73
2021/07/14 05:31:53;;;;;;;59.88;33.60;;;20.00;99.90;;;;;;5026703;28;20531;-74
2021/07/14 05:34:18;;;;;;;67.18;35.45;;;20.00;99.90;;;;;;5030168;28;20401;-77
2021/07/14 05:36:44;;;;;;;66.65;35.67;;;20.00;99.90;;;;;;5030481;28;20018;-75
2021/07/14 05:39:10;;;;;;;64.10;34.05;;;20.00;99.90;;;;;;5030593;28;20033;-75
2021/07/14 05:41:36;;;;;;;99.85;41.90;;;20.00;99.90;;;;;;5025762;28;20100;-75
2021/07/14 05:44:02;;;;;;;58.30;32.22;;;20.00;99.90;;;;;;5028482;28;20512;-75
2021/07/14 05:46:28;;;;;;;70.75;36.25;;;20.00;99.90;;;;;;5027265;28;20049;-73
2021/07/14 05:49:00;;;;;;;82.18;37.88;;;19.90;99.90;;;;;;5025377;28;20025;-73
2021/07/14 05:51:26;;;;;;;70.03;37.22;;;19.80;99.90;;;;;;5029720;28;20499;-72
2021/07/14 05:53:51;;;;;;;68.97;35.50;;;19.90;99.90;;;;;;5026044;28;20049;-73
2021/07/14 05:56:17;;;;;;;81.38;38.40;;;19.90;99.90;;;;;;5030612;28;20030;-75
2021/07/14 05:58:43;;;;;;;68.90;37.50;;;19.90;99.90;;;;;;5028847;28;20013;-76
2021/07/14 06:01:09;;;;;;;83.63;39.13;;;19.90;99.90;;;;;;5026038;28;20026;-70
2021/07/14 06:03:35;;;;;;;67.03;35.17;;;19.80;99.90;;;;;;5028627;28;20041;-74
2021/07/14 06:06:00;;;;;;;73.80;36.42;;;19.90;99.90;;;;;;5027393;28;20028;-71
2021/07/14 06:08:26;;;;;;;69.32;35.97;;;19.90;99.90;;;;;;5029507;28;20029;-75
2021/07/14 06:10:52;;;;;;;74.13;37.65;;;19.90;99.90;;;;;;5028142;28;20040;-76
2021/07/14 06:13:19;;;;;;;78.32;37.53;;;19.80;99.90;;;;;;5025398;28;20060;-75
2021/07/14 06:15:45;;;;;;;60.13;32.97;;;19.80;99.90;;;;;;5026958;28;20029;-74
2021/07/14 06:18:11;;;;;;;57.40;33.35;;;19.80;99.90;;;;;;5031213;28;20083;-74
2021/07/14 06:20:37;;;;;;;79.65;36.65;;;19.80;99.90;;;;;;5029555;28;20382;-74
2021/07/14 06:23:03;;;;;;;73.43;35.67;;;19.80;99.90;;;;;;5024157;28;20049;-73
2021/07/14 06:25:29;;;;;;;65.72;36.30;;;19.90;99.90;;;;;;5027594;28;20022;-74
2021/07/14 06:28:01;;;;;;;68.45;34.70;;;19.90;99.90;;;;;;5018580;28;20028;-74
2021/07/14 06:30:27;;;;;;;61.85;34.38;;;19.90;99.90;;;;;;5042866;28;20030;-70
2021/07/14 06:32:59;;;;;;;76.80;37.83;;;20.00;99.90;;;;;;5031590;28;20116;-70
2021/07/14 06:35:25;;;;;;;71.20;35.45;;;19.90;99.90;;;;;;5030473;28;20133;-72
2021/07/14 06:37:51;;;;;;;65.68;33.13;;;19.90;99.90;;;;;;5032993;28;20017;-74
2021/07/14 06:40:18;;;;;;;64.35;33.60;;;19.90;99.90;;;;;;5025858;28;20026;-72
2021/07/14 06:42:44;;;;;;;71.25;34.38;;;19.90;99.90;;;;;;5031600;28;20029;-71
2021/07/14 06:45:11;;;;;;;57.55;32.33;;;20.00;99.90;;;;;;5031135;28;20025;-73
2021/07/14 06:47:38;;;;;;;53.67;30.67;;;20.00;99.90;;;;;;5021359;28;20386;-73
2021/07/14 06:50:12;;;;;;;54.53;28.50;;;20.00;99.90;;;;;;5021996;28;20021;-72
2021/07/14 06:52:39;;;;;;;61.22;32.25;;;19.90;99.90;;;;;;5030067;28;20036;-68
2021/07/14 06:55:06;;;;;;;63.00;31.55;;;20.00;99.90;;;;;;5030462;28;20055;-70
2021/07/14 06:57:32;;;;;;;44.08;24.98;;;20.00;99.90;;;;;;5030993;28;20028;-71
2021/07/14 06:59:57;;;;;;;60.20;31.50;;;20.10;99.90;;;;;;5030836;28;20025;-68
2021/07/14 07:02:23;;;;;;;61.10;29.88;;;20.00;99.90;;;;;;5026614;28;20075;-73
2021/07/14 07:04:49;;;;;;;50.63;29.20;;;20.00;99.90;;;;;;5031106;28;20083;-72
2021/07/14 07:07:14;;;;;;;55.33;28.92;;;20.00;99.90;;;;;;5031226;28;20409;-74
2021/07/14 07:09:41;;;;;;;50.08;28.65;;;20.00;99.90;;;;;;5028943;28;20020;-72
2021/07/14 07:12:07;;;;;;;51.55;26.77;;;20.00;99.90;;;;;;5032306;28;20029;-73
2021/07/14 07:14:32;;;;;;;45.45;26.77;;;19.90;99.90;;;;;;5027733;28;20516;-68
2021/07/14 07:16:58;;;;;;;45.08;26.25;;;20.00;99.90;;;;;;5028390;28;20409;-74
2021/07/14 07:19:24;;;;;;;49.58;26.77;;;20.00;99.90;;;;;;5028859;28;20481;-74
2021/07/14 07:21:50;;;;;;;51.90;28.55;;;20.00;99.90;;;;;;5028848;28;20036;-74
2021/07/14 07:24:16;;;;;;;53.72;29.98;;;20.00;99.90;;;;;;5030925;28;20040;-74
2021/07/14 07:26:44;;;;;;;43.75;26.27;;;20.00;99.90;;;;;;5021743;28;20381;-74
2021/07/14 07:29:11;;;;;;;49.08;28.02;;;20.10;99.90;;;;;;5022081;28;20021;-74
2021/07/14 07:31:37;;;;;;;44.35;26.83;;;20.10;99.90;;;;;;5031437;28;20025;-75
2021/07/14 07:34:03;;;;;;;45.78;27.60;;;20.00;99.90;;;;;;5022588;28;20033;-73
2021/07/14 07:36:29;;;;;;;42.50;24.48;;;20.10;99.90;;;;;;5026954;28;20126;-73
2021/07/14 07:38:54;;;;;;;45.55;24.83;;;20.10;99.90;;;;;;5026467;28;20457;-73
2021/07/14 07:41:23;;;;;;;37.40;24.70;;;20.10;99.90;;;;;;5033131;28;20025;-73
2021/07/14 07:43:49;;;;;;;39.08;23.55;;;20.00;99.90;;;;;;5008461;28;20501;-72
2021/07/14 07:46:15;;;;;;;38.10;23.42;;;20.00;99.90;;;;;;5027688;28;20029;-75
2021/07/14 07:48:40;;;;;;;37.00;23.38;;;20.00;99.90;;;;;;5026288;28;20026;-75
2021/07/14 07:51:07;;;;;;;42.88;24.75;;;20.00;99.90;;;;;;5027963;28;20486;-75
2021/07/14 07:53:34;;;;;;;39.28;24.65;;;20.00;99.90;;;;;;5030777;28;20013;-75
2021/07/14 07:56:00;;;;;;;43.40;24.30;;;20.00;99.90;;;;;;5029205;28;20029;-75
2021/07/14 07:58:25;;;;;;;39.10;24.17;;;20.10;99.90;;;;;;5028446;28;20366;-74
2021/07/14 08:00:52;;;;;;;34.45;22.05;;;20.00;99.90;;;;;;5026334;28;20130;-74
2021/07/14 08:03:17;;;;;;;32.38;20.45;;;19.90;99.90;;;;;;5028664;28;20033;-73
2021/07/14 08:05:43;;;;;;;42.55;25.10;;;20.00;99.90;;;;;;5031055;28;20037;-74
2021/07/14 08:08:10;;;;;;;44.30;25.23;;;20.00;99.90;;;;;;5028942;28;20104;-72
2021/07/14 08:10:36;;;;;;;38.60;23.85;;;20.10;99.90;;;;;;5029144;28;20025;-73
2021/07/14 08:13:02;;;;;;;42.75;24.88;;;20.10;99.90;;;;;;5029367;28;20072;-73
2021/07/14 08:15:28;;;;;;;42.40;25.30;;;20.00;99.90;;;;;;5033451;28;20482;-72
2021/07/14 08:17:53;;;;;;;33.67;23.10;;;20.10;99.90;;;;;;5027608;28;20033;-72
2021/07/14 08:20:19;;;;;;;34.70;21.98;;;20.00;99.90;;;;;;5029440;28;20030;-72
2021/07/14 08:22:45;;;;;;;36.28;23.70;;;20.00;99.90;;;;;;5024176;28;20469;-70
2021/07/14 08:25:11;;;;;;;38.10;23.92;;;20.00;99.90;;;;;;5029937;28;20033;-69
2021/07/14 08:27:39;;;;;;;38.78;25.17;;;20.00;99.90;;;;;;5031612;28;20021;-69
2021/07/14 08:30:06;;;;;;;39.90;25.20;;;19.90;99.90;;;;;;5028580;28;20113;-70
2021/07/14 08:32:32;;;;;;;45.10;29.60;;;19.90;99.90;;;;;;5029869;28;20095;-69
2021/07/14 08:34:59;;;;;;;43.70;27.85;;;19.90;99.90;;;;;;5032560;28;20461;-69
2021/07/14 08:37:25;;;;;;;53.20;31.67;;;19.90;99.90;;;;;;5033495;28;20079;-74
2021/07/14 08:39:52;;;;;;;53.70;29.63;;;20.00;99.90;;;;;;5029949;28;20029;-72
2021/07/14 08:42:20;;;;;;;54.28;31.70;;;20.10;99.90;;;;;;5032960;28;20112;-72
2021/07/14 08:44:47;;;;;;;61.78;35.90;;;20.10;99.90;;;;;;5024178;28;20041;-74
2021/07/14 08:47:14;;;;;;;71.55;38.50;;;20.00;99.90;;;;;;5031835;28;20042;-76
2021/07/14 08:49:43;;;;;;;77.57;38.85;;;20.00;99.90;;;;;;5030561;28;20033;-72
2021/07/14 08:52:13;;;;;;;63.15;38.47;;;19.90;99.90;;;;;;5032457;28;20296;-73
2021/07/14 08:54:43;;;;;;;66.60;39.38;;;19.80;99.90;;;;;;5029462;28;20044;-72
2021/07/14 08:57:10;;;;;;;72.22;38.25;;;19.90;99.90;;;;;;5029256;28;20026;-69
2021/07/14 08:59:36;;;;;;;79.30;43.42;;;19.90;99.90;;;;;;5026397;28;20021;-69
2021/07/14 09:02:02;;;;;;;62.55;35.83;;;19.90;99.90;;;;;;5032211;28;20028;-71
2021/07/14 09:04:28;;;;;;;80.60;42.80;;;20.00;99.90;;;;;;5031364;28;20068;-69
2021/07/14 09:06:54;;;;;;;77.93;43.80;;;20.00;99.90;;;;;;5030538;28;20465;-68
2021/07/14 09:09:20;;;;;;;68.20;40.92;;;19.90;99.90;;;;;;5029768;28;20033;-68
2021/07/14 09:11:58;;;;;;;64.90;39.97;;;20.00;99.90;;;;;;5031627;28;20120;-69
2021/07/14 09:14:34;;;;;;;75.07;40.40;;;20.00;99.90;;;;;;5026953;28;20113;-69
2021/07/14 09:17:25;;;;;;;72.82;41.03;;;20.00;99.90;;;;;;5030035;28;20390;-69
2021/07/14 09:20:09;;;;;;;84.03;42.70;;;20.00;99.90;;;;;;5025907;28;20073;-69
2021/07/14 09:22:35;;;;;;;77.25;43.42;;;19.90;99.90;;;;;;5027815;28;20769;-73
2021/07/14 09:25:12;;;;;;;70.63;39.72;;;19.90;99.90;;;;;;5029571;28;20041;-70
2021/07/14 09:27:37;;;;;;;74.55;41.97;;;19.90;99.90;;;;;;5025704;28;20429;-69
2021/07/14 09:30:10;;;;;;;80.53;45.80;;;19.80;99.90;;;;;;5019262;28;20029;-68
2021/07/14 09:32:53;;;;;;;76.82;42.05;;;19.80;99.90;;;;;;5029714;28;20270;-68
2021/07/14 09:35:42;;;;;;;68.40;41.72;;;19.70;99.90;;;;;;5025662;28;20041;-68
2021/07/14 09:38:11;;;;;;;74.03;43.20;;;19.80;99.90;;;;;;5031109;28;20420;-70
2021/07/14 09:40:38;;;;;;;74.95;42.75;;;19.70;99.90;;;;;;5030153;28;20409;-69
2021/07/14 09:43:15;;;;;;;88.78;46.58;;;19.80;99.90;;;;;;5030340;28;20014;-68
2021/07/14 09:45:58;;;;;;;83.55;44.95;;;19.80;99.90;;;;;;5019180;28;20017;-69
2021/07/14 09:48:29;;;;;;;77.63;42.35;;;19.90;99.90;;;;;;5031391;28;20025;-71
2021/07/14 09:51:18;;;;;;;73.22;41.55;;;19.80;99.90;;;;;;5030669;28;20025;-68
2021/07/14 09:53:49;;;;;;;79.18;45.80;;;19.90;99.90;;;;;;5031993;28;20532;-69
2021/07/14 09:56:22;;;;;;;75.47;42.38;;;19.90;99.90;;;;;;5030466;28;20055;-69
2021/07/14 09:59:01;;;;;;;83.45;44.22;;;19.90;99.90;;;;;;5028098;28;20026;-68
2021/07/14 10:01:39;;;;;;;96.63;49.13;;;19.90;99.90;;;;;;5026497;28;20042;-72
2021/07/14 10:04:05;;;;;;;72.28;43.22;;;19.90;99.90;;;;;;5023059;28;20069;-69
2021/07/14 10:06:30;;;;;;;63.70;39.40;;;20.00;99.90;;;;;;5025496;28;20390;-69
2021/07/14 10:09:03;;;;;;;69.38;39.20;;;19.90;99.90;;;;;;5041927;28;20040;-70
2021/07/14 10:11:29;;;;;;;65.30;38.45;;;19.90;99.90;;;;;;5028783;28;20071;-71
2021/07/14 10:13:57;;;;;;;64.03;39.17;;;19.90;99.90;;;;;;5027340;28;20049;-69
2021/07/14 10:16:30;;;;;;;65.20;37.63;;;19.90;99.90;;;;;;5025538;28;20056;-68
2021/07/14 10:19:03;;;;;;;76.15;39.17;;;19.90;99.90;;;;;;5022271;28;20116;-70
2021/07/14 10:21:30;;;;;;;75.13;40.47;;;19.80;99.90;;;;;;5025781;28;20116;-69
2021/07/14 10:23:57;;;;;;;53.05;33.78;;;19.80;99.90;;;;;;5030373;28;20120;-69
2021/07/14 10:26:22;;;;;;;66.32;36.00;;;19.80;99.90;;;;;;5024263;28;20098;-69
2021/07/14 10:28:50;;;;;;;53.28;30.85;;;19.80;99.90;;;;;;5029565;28;20477;-71
2021/07/14 10:31:19;;;;;;;57.90;36.65;;;19.80;99.90;;;;;;5029606;28;20080;-69
2021/07/14 10:33:45;;;;;;;63.22;34.90;;;19.90;99.90;;;;;;5029460;28;20633;-70
2021/07/14 10:36:14;;;;;;;72.00;39.13;;;19.80;99.90;;;;;;5023219;28;20025;-70
2021/07/14 10:38:48;;;;;;;71.82;42.17;;;19.80;99.90;;;;;;5030044;28;20023;-69
2021/07/14 10:41:14;;;;;;;68.80;38.33;;;19.80;99.90;;;;;;5026853;28;20026;-71
2021/07/14 10:43:43;;;;;;;76.47;39.85;;;19.80;99.90;;;;;;5028306;28;20025;-72
2021/07/14 10:46:10;;;;;;;70.78;40.55;;;19.80;99.90;;;;;;5027950;28;20732;-70
2021/07/14 10:48:39;;;;;;;75.93;40.33;;;19.80;99.90;;;;;;5029063;28;20063;-69
2021/07/14 10:51:05;;;;;;;81.03;42.72;;;19.90;99.90;;;;;;5025838;28;20017;-71
2021/07/14 10:53:32;;;;;;;72.55;42.53;;;19.90;99.90;;;;;;5027457;28;20033;-71
2021/07/14 10:55:58;;;;;;;75.82;41.45;;;19.90;99.90;;;;;;5022522;28;20504;-72
2021/07/14 10:58:25;;;;;;;76.45;42.22;;;19.80;99.90;;;;;;5026662;28;20033;-70
2021/07/14 11:00:51;;;;;;;72.47;40.83;;;19.90;99.90;;;;;;5027956;28;20072;-74
2021/07/14 11:03:38;;;;;;;66.38;40.35;;;19.90;99.90;;;;;;5019725;28;20042;-74
2021/07/14 11:06:05;;;;;;;83.53;45.28;;;19.90;99.90;;;;;;5024038;28;20037;-75
2021/07/14 11:08:46;;;;;;;77.35;43.75;;;19.90;99.90;;;;;;5027024;28;20061;-73
2021/07/14 11:11:17;;;;;;;80.72;41.28;;;19.90;99.90;;;;;;5023963;28;20026;-70
2021/07/14 11:14:02;;;;;;;78.15;43.67;;;20.00;99.90;;;;;;5023863;28;20041;-69
2021/07/14 11:16:36;;;;;;;68.63;40.28;;;20.00;99.90;;;;;;5038797;28;20632;-70
2021/07/14 11:19:19;;;;;;;70.50;40.50;;;20.00;99.90;;;;;;5022906;28;20029;-70
2021/07/14 11:21:47;;;;;;;64.40;39.75;;;20.00;99.90;;;;;;5028518;28;20029;-70
2021/07/14 11:24:53;;;;;;;66.20;40.17;;;20.00;99.90;;;;;;5025752;28;20107;-70
2021/07/14 11:27:18;;;;;;;61.25;39.63;;;19.90;99.90;;;;;;5022030;28;20030;-71
2021/07/14 11:29:46;;;;;;;71.97;42.28;;;19.80;99.90;;;;;;5028411;28;20093;-73
2021/07/14 11:32:35;;;;;;;61.90;38.78;;;19.90;99.90;;;;;;5030221;28;20021;-73
2021/07/14 11:35:14;;;;;;;65.60;40.47;;;19.80;99.90;;;;;;5024127;28;20421;-71
2021/07/14 11:37:43;;;;;;;63.97;40.97;;;19.90;99.90;;;;;;5029015;28;20068;-74
2021/07/14 11:40:19;;;;;;;65.05;40.40;;;19.90;99.90;;;;;;5026243;28;20037;-70
2021/07/14 11:43:19;;;;;;;62.17;39.08;;;19.90;99.90;;;;;;5024299;28;20049;-69
2021/07/14 11:45:49;;;;;;;65.38;41.22;;;19.90;99.90;;;;;;5025959;28;20050;-71
2021/07/14 11:48:24;;;;;;;70.80;41.58;;;20.00;99.90;;;;;;5028805;28;20120;-70
2021/07/14 11:51:19;;;;;;;56.47;37.35;;;19.90;99.90;;;;;;5027706;28;20040;-70
2021/07/14 11:53:49;;;;;;;56.38;37.10;;;20.00;99.90;;;;;;5027015;28;20401;-72
2021/07/14 11:56:31;;;;;;;58.92;40.08;;;20.00;99.90;;;;;;5021717;28;20076;-70
2021/07/14 11:59:03;;;;;;;53.47;35.25;;;20.10;99.90;;;;;;5027399;28;20470;-71
2021/07/14 12:01:31;;;;;;;54.75;37.67;;;20.10;99.90;;;;;;5027812;28;20036;-70
2021/07/14 12:04:00;;;;;;;50.03;35.30;;;20.10;99.90;;;;;;5027370;28;20132;-72
2021/07/14 12:06:39;;;;;;;56.55;35.53;;;20.20;99.90;;;;;;5021857;28;20026;-72
2021/07/14 12:09:24;;;;;;;54.40;34.65;;;20.10;99.90;;;;;;5026042;28;20091;-71
2021/07/14 12:11:50;;;;;;;44.08;30.92;;;20.20;99.90;;;;;;5027454;28;20021;-73
2021/07/14 12:14:29;;;;;;;46.75;31.00;;;20.10;99.90;;;;;;5026502;28;20037;-70
2021/07/14 12:17:02;;;;;;;46.40;31.15;;;20.10;99.90;;;;;;5029739;28;20020;-71
2021/07/14 12:19:40;;;;;;;48.00;33.08;;;20.20;99.90;;;;;;5028415;28;20018;-73
2021/07/14 12:22:12;;;;;;;49.40;30.38;;;20.20;99.90;;;;;;5027199;28;20079;-71
2021/07/14 12:24:45;;;;;;;48.42;31.52;;;20.20;99.90;;;;;;5020368;28;20374;-69
2021/07/14 12:27:24;;;;;;;38.90;27.30;;;20.10;99.90;;;;;;5032614;28;20083;-72
2021/07/14 12:30:09;;;;;;;38.08;26.73;;;20.10;99.90;;;;;;5032823;28;20388;-71
2021/07/14 12:32:37;;;;;;;36.92;26.77;;;20.00;99.90;;;;;;5020576;28;20780;-72
2021/07/14 12:35:16;;;;;;;38.25;27.33;;;20.10;99.90;;;;;;5016777;28;20018;-69
2021/07/14 12:37:58;;;;;;;33.47;25.45;;;20.10;99.90;;;;;;5031020;28;20025;-69
2021/07/14 12:40:38;;;;;;;36.00;26.23;;;20.20;99.90;;;;;;5030353;28;20017;-69
2021/07/14 12:43:09;;;;;;;37.65;24.88;;;20.20;99.90;;;;;;5028772;28;20029;-69
2021/07/14 12:45:37;;;;;;;32.42;23.38;;;20.20;99.90;;;;;;5028040;28;20038;-69
2021/07/14 12:48:04;;;;;;;31.00;22.30;;;20.10;99.90;;;;;;5017296;28;20397;-68
2021/07/14 12:50:31;;;;;;;32.95;23.80;;;20.20;99.90;;;;;;5028846;28;20032;-68
2021/07/14 12:52:59;;;;;;;32.83;23.20;;;20.20;99.90;;;;;;5027723;28;20040;-68